createdAt,value
2023-05-04T00:01:22.502Z,100931.63
2023-05-04T00:03:50.320Z,100943.34
2023-05-04T00:06:18.216Z,100933.91
2023-05-04T00:08:45.957Z,100925.63
2023-05-04T00:11:13.628Z,100931.97
2023-05-04T00:13:41.273Z,100931.66
2023-05-04T00:16:10.900Z,100938.16
2023-05-04T00:18:40.246Z,100924.34
2023-05-04T00:21:08.091Z,100909.53
2023-05-04T00:23:35.817Z,100908.22
2023-05-04T00:26:03.891Z,100900.44
2023-05-04T00:28:31.505Z,100902.84
2023-05-04T00:30:59.227Z,100884.97
2023-05-04T00:33:26.902Z,100867.25
2023-05-04T00:35:55.884Z,100873.09
2023-05-04T00:38:24.377Z,100881.72
2023-05-04T00:40:52.142Z,100880.75
2023-05-04T00:43:19.736Z,100869.34
2023-05-04T00:45:47.800Z,100834.22
2023-05-04T00:48:15.941Z,100839.78
2023-05-04T00:50:44.193Z,100829.22
2023-05-04T00:53:13.460Z,100832.31
2023-05-04T00:55:41.493Z,100825.78
2023-05-04T00:58:10.074Z,100814.75
2023-05-04T01:00:38.118Z,100843.38
2023-05-04T01:03:06.076Z,100839.13
2023-05-04T01:05:39.559Z,100813.41
2023-05-04T01:08:12.845Z,100814.91
2023-05-04T01:10:50.937Z,100803.84
2023-05-04T01:13:22.360Z,100810.31
2023-05-04T01:15:50.707Z,100807.06
2023-05-04T01:18:18.788Z,100780.22
2023-05-04T01:20:46.434Z,100794.72
2023-05-04T01:23:15.582Z,100801.03
2023-05-04T01:25:50.620Z,100764.00
2023-05-04T01:28:20.742Z,100762.06
2023-05-04T01:30:52.382Z,100770.00
2023-05-04T01:33:21.329Z,100765.44
2023-05-04T01:35:50.124Z,100743.03
2023-05-04T01:38:19.480Z,100699.84
2023-05-04T01:40:47.312Z,100747.09
2023-05-04T01:43:14.980Z,100742.53
2023-05-04T01:45:42.802Z,100741.72
2023-05-04T01:48:10.552Z,100724.19
2023-05-04T01:50:38.280Z,100699.34
2023-05-04T01:53:05.931Z,100706.28
2023-05-04T01:55:35.035Z,100702.25
2023-05-04T01:58:02.812Z,100690.06
2023-05-04T02:00:30.717Z,100709.56
2023-05-04T02:02:58.491Z,100690.72
2023-05-04T02:05:26.291Z,100689.91
2023-05-04T02:07:53.939Z,100679.22
2023-05-04T02:10:21.631Z,100680.19
2023-05-04T02:12:50.698Z,100677.06
2023-05-04T02:15:18.565Z,100656.94
2023-05-04T02:17:46.426Z,100647.84
2023-05-04T02:20:15.103Z,100661.50
2023-05-04T02:22:42.753Z,100663.63
2023-05-04T02:25:10.900Z,100651.44
2023-05-04T02:27:38.592Z,100652.09
2023-05-04T02:30:09.313Z,100649.66
2023-05-04T02:32:37.397Z,100639.25
2023-05-04T02:35:05.504Z,100641.84
2023-05-04T02:37:33.236Z,100641.53
2023-05-04T02:40:00.986Z,100634.41
2023-05-04T02:42:28.679Z,100638.63
2023-05-04T02:44:56.345Z,100607.28
2023-05-04T02:47:25.510Z,100599.66
2023-05-04T02:49:53.480Z,100593.94
2023-05-04T02:52:21.198Z,100567.34
2023-05-04T02:54:49.690Z,100547.88
2023-05-04T02:57:18.308Z,100547.53
2023-05-04T02:59:46.761Z,100527.91
2023-05-04T03:02:14.507Z,100547.25
2023-05-04T03:04:43.520Z,100539.91
2023-05-04T03:07:11.719Z,100533.59
2023-05-04T03:09:39.413Z,100548.88
2023-05-04T03:12:07.422Z,100538.31
2023-05-04T03:14:35.068Z,100530.03
2023-05-04T03:17:03.289Z,100542.38
2023-05-04T03:19:32.154Z,100518.34
2023-05-04T03:22:01.226Z,100501.63
2023-05-04T03:24:28.916Z,100516.06
2023-05-04T03:26:57.363Z,100505.69
2023-05-04T03:29:25.058Z,100519.97
2023-05-04T03:31:52.965Z,100521.44
2023-05-04T03:34:22.697Z,100506.03
2023-05-04T03:36:50.603Z,100493.69
2023-05-04T03:39:19.728Z,100475.53
2023-05-04T03:41:47.448Z,100498.03
2023-05-04T03:44:15.113Z,100534.25
2023-05-04T03:46:42.760Z,100533.28
2023-05-04T03:49:10.406Z,100513.66
2023-05-04T03:51:38.104Z,100503.59
2023-05-04T03:54:06.016Z,100495.97
2023-05-04T03:56:35.077Z,100459.31
2023-05-04T03:59:02.770Z,100470.50
2023-05-04T04:01:30.455Z,100471.47
2023-05-04T04:03:58.192Z,100461.28
2023-05-04T04:06:25.894Z,100452.16
2023-05-04T04:08:53.601Z,100450.38
2023-05-04T04:11:21.316Z,100458.00
2023-05-04T04:13:50.314Z,100443.59
2023-05-04T04:16:18.017Z,100424.44
2023-05-04T04:18:46.419Z,100427.69
2023-05-04T04:21:14.279Z,100437.56
2023-05-04T04:23:41.934Z,100393.66
2023-05-04T04:26:10.388Z,100402.69
2023-05-04T04:28:38.059Z,100420.69
2023-05-04T04:31:07.258Z,100423.97
2023-05-04T04:33:36.235Z,100423.59
2023-05-04T04:36:03.940Z,100425.06
2023-05-04T04:38:31.580Z,100439.19
2023-05-04T04:40:59.260Z,100427.50
2023-05-04T04:43:26.886Z,100419.09
2023-05-04T04:45:54.858Z,100391.19
2023-05-04T04:48:25.778Z,100389.88
2023-05-04T04:50:53.799Z,100404.78
2023-05-04T04:53:21.517Z,100420.50
2023-05-04T04:55:49.336Z,100442.72
2023-05-04T04:58:17.028Z,100427.47
2023-05-04T05:00:45.272Z,100448.25
2023-05-04T05:03:13.342Z,100449.22
2023-05-04T05:05:42.485Z,100447.13
2023-05-04T05:08:10.164Z,100433.00
2023-05-04T05:10:37.896Z,100408.97
2023-05-04T05:13:05.918Z,100389.66
2023-05-04T05:15:33.712Z,100399.56
2023-05-04T05:18:01.644Z,100395.47
2023-05-04T05:20:29.542Z,100415.91
2023-05-04T05:22:59.046Z,100422.84
2023-05-04T05:25:27.063Z,100427.88
2023-05-04T05:27:54.795Z,100399.16
2023-05-04T05:30:22.514Z,100410.03
2023-05-04T05:32:50.369Z,100419.56
2023-05-04T05:35:18.313Z,100419.81
2023-05-04T05:37:46.033Z,100427.94
2023-05-04T05:40:15.444Z,100427.13
2023-05-04T05:42:43.386Z,100435.72
2023-05-04T05:45:12.243Z,100461.66
2023-05-04T05:47:39.988Z,100461.16
2023-05-04T05:50:08.864Z,100471.56
2023-05-04T05:52:36.344Z,100463.25
2023-05-04T05:55:04.235Z,100464.19
2023-05-04T05:57:33.410Z,100451.84
2023-05-04T06:00:01.080Z,100467.34
2023-05-04T06:02:28.829Z,100463.41
2023-05-04T06:04:56.633Z,100473.53
2023-05-04T06:07:24.582Z,100494.22
2023-05-04T06:09:52.259Z,100487.03
2023-05-04T06:12:20.002Z,100463.00
2023-05-04T06:14:49.010Z,100452.84
2023-05-04T06:17:17.431Z,100462.03
2023-05-04T06:19:45.971Z,100471.06
2023-05-04T06:22:14.417Z,100438.72
2023-05-04T06:24:42.083Z,100487.81
2023-05-04T06:27:09.915Z,100519.91
2023-05-04T06:29:40.180Z,100545.94
2023-05-04T06:32:09.887Z,100534.75
2023-05-04T06:34:37.673Z,100557.78
2023-05-04T06:37:05.406Z,100576.34
2023-05-04T06:39:33.196Z,100552.03
2023-05-04T06:42:01.599Z,100578.41
2023-05-04T06:44:29.529Z,100638.97
2023-05-04T06:46:57.193Z,100640.94
2023-05-04T06:49:26.234Z,100642.66
2023-05-04T06:51:53.910Z,100652.44
2023-05-04T06:54:21.597Z,100675.81
2023-05-04T06:56:49.389Z,100697.22
2023-05-04T06:59:20.186Z,100718.31
2023-05-04T07:01:48.278Z,100716.06
2023-05-04T07:04:17.102Z,100710.63
2023-05-04T07:06:46.648Z,100758.59
2023-05-04T07:09:14.407Z,100806.78
2023-05-04T07:11:42.076Z,100845.69
2023-05-04T07:14:10.575Z,100829.56
2023-05-04T07:16:38.343Z,100797.75
2023-05-04T07:19:06.085Z,100894.59
2023-05-04T07:21:34.152Z,100891.81
2023-05-04T07:24:04.377Z,100930.72
2023-05-04T07:26:32.140Z,100947.03
2023-05-04T07:28:59.905Z,100992.75
2023-05-04T07:31:29.507Z,101031.63
2023-05-04T07:33:58.299Z,101056.97
2023-05-04T07:36:27.757Z,101060.13
2023-05-04T07:38:55.596Z,101033.50
2023-05-04T07:41:24.624Z,101092.13
2023-05-04T07:43:52.282Z,101104.84
2023-05-04T07:46:20.268Z,101142.16
2023-05-04T07:48:49.297Z,101160.56
2023-05-04T07:51:17.317Z,101208.38
2023-05-04T07:53:45.029Z,101252.34
2023-05-04T07:56:13.980Z,101245.56
2023-05-04T07:58:43.039Z,101257.16
2023-05-04T08:01:10.922Z,101319.59
2023-05-04T08:03:38.656Z,101341.28
2023-05-04T08:06:06.481Z,101381.84
2023-05-04T08:08:34.303Z,101363.09
2023-05-04T08:11:15.964Z,101395.59
2023-05-04T08:13:48.593Z,101406.38
2023-05-04T08:16:16.525Z,101411.50
2023-05-04T08:18:44.628Z,101432.94
2023-05-04T08:21:12.373Z,101428.00
2023-05-04T08:23:40.120Z,101450.66
2023-05-04T08:26:07.855Z,101447.91
2023-05-04T08:28:37.864Z,101430.81
2023-05-04T08:31:07.754Z,101443.78
2023-05-04T08:33:35.545Z,101452.59
2023-05-04T08:36:04.437Z,101479.09
2023-05-04T08:38:32.356Z,101505.78
2023-05-04T08:41:03.323Z,101487.25
2023-05-04T08:43:31.302Z,101561.94
2023-05-04T08:45:59.226Z,101588.97
2023-05-04T08:48:28.679Z,101589.75
2023-05-04T08:50:58.699Z,101662.88
2023-05-04T08:53:28.151Z,101646.63
2023-05-04T08:55:57.026Z,101637.66
2023-05-04T08:58:26.051Z,101672.94
2023-05-04T09:00:54.142Z,101680.44
2023-05-04T09:03:22.465Z,101705.13
2023-05-04T09:05:52.723Z,101735.66
2023-05-04T09:08:21.026Z,101739.75
2023-05-04T09:10:48.748Z,101775.03
2023-05-04T09:13:16.477Z,101718.31
2023-05-04T09:15:44.204Z,101748.38
2023-05-04T09:18:12.071Z,101797.94
2023-05-04T09:20:47.136Z,101746.72
2023-05-04T09:23:18.110Z,101704.00
2023-05-04T09:25:50.041Z,101793.22
2023-05-04T09:28:19.410Z,101760.06
2023-05-04T09:30:48.948Z,101797.47
2023-05-04T09:33:17.552Z,101836.41
2023-05-04T09:35:45.499Z,101804.13
2023-05-04T09:38:13.148Z,101785.91
2023-05-04T09:40:43.327Z,101771.56
2023-05-04T09:43:13.460Z,101714.63
2023-05-04T09:45:42.086Z,101777.56
2023-05-04T09:48:17.545Z,101763.97
2023-05-04T09:50:53.703Z,101763.56
2023-05-04T09:53:23.149Z,101778.72
2023-05-04T09:56:09.366Z,101787.88
2023-05-04T09:58:37.381Z,101755.09
2023-05-04T10:01:06.060Z,101758.09
2023-05-04T10:03:34.234Z,101736.56
2023-05-04T10:06:05.622Z,101776.00
2023-05-04T10:08:33.923Z,101780.97
2023-05-04T10:11:02.992Z,101806.22
2023-05-04T10:13:30.706Z,101766.59
2023-05-04T10:16:10.028Z,101773.38
2023-05-04T10:18:54.403Z,101735.25
2023-05-04T10:21:31.425Z,101772.78
2023-05-04T10:24:35.755Z,101767.31
2023-05-04T10:27:08.476Z,101728.19
2023-05-04T10:29:36.687Z,101791.69
2023-05-04T10:32:05.366Z,101770.81
2023-05-04T10:34:34.849Z,101717.88
2023-05-04T10:37:03.985Z,101742.63
2023-05-04T10:39:33.000Z,101765.38
2023-05-04T10:42:06.288Z,101783.09
2023-05-04T10:44:35.217Z,101717.16
2023-05-04T10:47:05.453Z,101699.31
2023-05-04T10:49:34.285Z,101774.03
2023-05-04T10:52:12.864Z,101720.47
2023-05-04T10:54:42.517Z,101721.78
2023-05-04T10:57:13.712Z,101713.25
2023-05-04T10:59:42.292Z,101735.78
2023-05-04T11:02:10.034Z,101746.25
2023-05-04T11:04:39.297Z,101746.28
2023-05-04T11:07:08.718Z,101756.88
2023-05-04T11:09:38.394Z,101731.09
2023-05-04T11:12:07.318Z,101753.56
2023-05-04T11:14:41.346Z,101739.91
2023-05-04T11:17:26.877Z,101746.66
2023-05-04T11:19:56.313Z,101727.06
2023-05-04T11:22:24.265Z,101727.69
2023-05-04T11:24:52.839Z,101696.94
2023-05-04T11:27:23.500Z,101724.91
2023-05-04T11:30:00.845Z,101722.44
2023-05-04T11:32:36.067Z,101711.97
2023-05-04T11:35:05.260Z,101685.72
2023-05-04T11:37:40.534Z,101709.56
2023-05-04T11:40:16.487Z,101687.34
2023-05-04T11:42:45.062Z,101691.28
2023-05-04T11:45:17.800Z,101697.75
2023-05-04T11:47:46.519Z,101691.31
2023-05-04T11:50:16.184Z,101690.84
2023-05-04T11:52:44.456Z,101646.66
2023-05-04T11:55:13.743Z,101673.47
2023-05-04T11:57:41.455Z,101690.63
2023-05-04T12:00:10.576Z,101692.66
2023-05-04T12:02:39.844Z,101677.78
2023-05-04T12:05:14.681Z,101684.94
2023-05-04T12:07:42.487Z,101681.25
2023-05-04T12:10:10.947Z,101678.25
2023-05-04T12:12:38.737Z,101678.44
2023-05-04T12:15:07.528Z,101669.06
2023-05-04T12:17:43.209Z,101677.56
2023-05-04T12:20:11.730Z,101678.41
2023-05-04T12:22:39.553Z,101666.19
2023-05-04T12:25:09.325Z,101669.09
2023-05-04T12:27:41.595Z,101663.34
2023-05-04T12:30:11.033Z,101663.59
2023-05-04T12:32:39.164Z,101661.06
2023-05-04T12:35:08.668Z,101655.72
2023-05-04T12:37:36.573Z,101608.72
2023-05-04T12:40:11.356Z,101647.88
2023-05-04T12:42:45.662Z,101645.09
2023-05-04T12:45:14.091Z,101623.69
2023-05-04T12:47:42.365Z,101622.53
2023-05-04T12:50:12.158Z,101623.88
2023-05-04T12:52:40.618Z,101624.91
2023-05-04T12:55:09.326Z,101620.03
2023-05-04T12:57:37.564Z,101620.66
2023-05-04T13:00:09.504Z,101618.19
2023-05-04T13:02:37.521Z,101611.84
2023-05-04T13:05:05.772Z,101617.25
2023-05-04T13:07:36.294Z,101612.19
2023-05-04T13:10:04.089Z,101615.50
2023-05-04T13:12:31.834Z,101599.28
2023-05-04T13:15:00.291Z,101599.94
2023-05-04T13:17:29.651Z,101596.69
2023-05-04T13:19:57.501Z,101597.59
2023-05-04T13:22:25.071Z,101590.88
2023-05-04T13:24:53.905Z,101587.28
2023-05-04T13:27:21.554Z,101573.72
2023-05-04T13:29:49.304Z,101564.25
2023-05-04T13:32:17.097Z,101563.94
2023-05-04T13:34:44.659Z,101547.66
2023-05-04T13:37:16.629Z,101562.25
2023-05-04T13:39:44.260Z,101549.28
2023-05-04T13:42:13.825Z,101555.94
2023-05-04T13:44:44.668Z,101546.63
2023-05-04T13:47:13.751Z,101543.50
2023-05-04T13:49:41.643Z,101532.25
2023-05-04T13:52:09.480Z,101534.56
2023-05-04T13:54:37.305Z,101525.94
2023-05-04T13:57:05.272Z,101534.34
2023-05-04T13:59:34.393Z,101514.59
2023-05-04T14:02:02.211Z,101501.75
2023-05-04T14:04:30.262Z,101484.59
2023-05-04T14:06:57.911Z,101505.38
2023-05-04T14:09:26.510Z,101502.56
2023-05-04T14:11:54.605Z,101498.69
2023-05-04T14:14:22.871Z,101486.09
2023-05-04T14:16:52.044Z,101482.75
2023-05-04T14:19:19.780Z,101499.22
2023-05-04T14:21:47.650Z,101491.19
2023-05-04T14:24:15.402Z,101481.78
2023-05-04T14:26:43.099Z,101481.69
2023-05-04T14:29:10.765Z,101473.16
2023-05-04T14:31:38.530Z,101466.38
2023-05-04T14:34:07.837Z,101468.44
2023-05-04T14:36:35.580Z,101466.97
2023-05-04T14:39:03.653Z,101469.69
2023-05-04T14:41:33.650Z,101466.53
2023-05-04T14:44:01.832Z,101470.72
2023-05-04T14:46:29.946Z,101446.44
2023-05-04T14:48:57.676Z,101439.63
2023-05-04T14:51:27.663Z,101445.22
2023-05-04T14:53:55.619Z,101436.06
2023-05-04T14:56:23.407Z,101451.09
2023-05-04T14:58:51.070Z,101446.38
2023-05-04T15:01:18.854Z,101432.38
2023-05-04T15:03:46.743Z,101436.94
2023-05-04T15:06:14.603Z,101441.34
2023-05-04T15:08:43.645Z,101440.41
2023-05-04T15:11:11.522Z,101436.09
2023-05-04T15:13:39.215Z,101442.72
2023-05-04T15:16:07.536Z,101437.97
2023-05-04T15:18:35.333Z,101437.16
2023-05-04T15:21:03.086Z,101437.22
2023-05-04T15:23:30.843Z,101443.03
2023-05-04T15:26:00.720Z,101434.00
2023-05-04T15:28:28.450Z,101426.19
2023-05-04T15:30:56.317Z,101426.50
2023-05-04T15:33:24.061Z,101421.41
2023-05-04T15:35:51.754Z,101412.63
2023-05-04T15:38:20.768Z,101423.84
2023-05-04T15:40:48.535Z,101416.88
2023-05-04T15:43:17.676Z,101420.66
2023-05-04T15:45:45.840Z,101414.72
2023-05-04T15:48:13.571Z,101407.78
2023-05-04T15:50:42.616Z,101412.28
2023-05-04T15:53:10.346Z,101391.97
2023-05-04T15:55:38.074Z,101394.56
2023-05-04T15:58:05.997Z,101398.91
2023-05-04T16:00:35.226Z,101396.81
2023-05-04T16:03:03.052Z,101397.06
2023-05-04T16:05:31.232Z,101389.06
2023-05-04T16:07:58.998Z,101391.91
2023-05-04T16:10:26.740Z,101384.59
2023-05-04T16:12:54.630Z,101371.03
2023-05-04T16:15:22.629Z,101382.13
2023-05-04T16:17:51.707Z,101368.31
2023-05-04T16:20:19.406Z,101369.47
2023-05-04T16:22:48.322Z,101362.19
2023-05-04T16:25:16.145Z,101367.00
2023-05-04T16:27:43.784Z,101363.69
2023-05-04T16:30:12.511Z,101359.00
2023-05-04T16:32:40.144Z,101357.28
2023-05-04T16:35:10.301Z,101357.81
2023-05-04T16:37:38.741Z,101337.63
2023-05-04T16:40:14.643Z,101345.66
2023-05-04T16:42:42.615Z,101353.00
2023-05-04T16:45:13.463Z,101344.66
2023-05-04T16:47:41.541Z,101342.06
2023-05-04T16:50:11.866Z,101336.47
2023-05-04T16:52:39.719Z,101344.88
2023-05-04T16:55:09.998Z,101338.28
2023-05-04T16:57:39.550Z,101327.56
2023-05-04T17:00:08.886Z,101331.19
2023-05-04T17:02:36.976Z,101330.31
2023-05-04T17:05:06.786Z,101329.63
2023-05-04T17:07:35.998Z,101323.16
2023-05-04T17:10:03.737Z,101329.53
2023-05-04T17:12:32.163Z,101320.44
2023-05-04T17:14:59.859Z,101336.25
2023-05-04T17:17:27.607Z,101330.91
2023-05-04T17:19:55.383Z,101335.94
2023-05-04T17:22:23.548Z,101330.19
2023-05-04T17:24:52.806Z,101323.34
2023-05-04T17:27:20.562Z,101318.38
2023-05-04T17:29:48.310Z,101324.78
2023-05-04T17:32:16.117Z,101325.59
2023-05-04T17:34:43.915Z,101313.38
2023-05-04T17:37:11.745Z,101334.31
2023-05-04T17:39:39.387Z,101340.59
2023-05-04T17:42:08.464Z,101333.97
2023-05-04T17:44:36.175Z,101323.47
2023-05-04T17:47:03.850Z,101325.50
2023-05-04T17:49:31.531Z,101336.38
2023-05-04T17:52:01.376Z,101319.31
2023-05-04T17:54:29.244Z,101322.38
2023-05-04T17:56:56.865Z,101320.50
2023-05-04T17:59:26.064Z,101324.75
2023-05-04T18:01:53.730Z,101329.97
2023-05-04T18:04:21.442Z,101331.06
2023-05-04T18:06:50.772Z,101310.44
2023-05-04T18:09:19.628Z,101319.06
2023-05-04T18:11:47.980Z,101312.94
2023-05-04T18:14:15.526Z,101307.91
2023-05-04T18:16:44.494Z,101332.94
2023-05-04T18:19:12.166Z,101338.00
2023-05-04T18:21:39.845Z,101327.00
2023-05-04T18:24:08.429Z,101325.72
2023-05-04T18:26:36.547Z,101333.91
2023-05-04T18:29:17.365Z,101327.50
2023-05-04T18:31:48.063Z,101324.88
2023-05-04T18:34:15.759Z,101328.41
2023-05-04T18:36:43.572Z,101316.56
2023-05-04T18:39:11.845Z,101297.66
2023-05-04T18:41:40.449Z,101314.53
2023-05-04T18:44:10.034Z,101316.72
2023-05-04T18:46:37.777Z,101314.88
2023-05-04T18:49:06.945Z,101330.34
2023-05-04T18:51:34.727Z,101292.63
2023-05-04T18:54:02.493Z,101311.69
2023-05-04T18:56:30.657Z,101290.81
2023-05-04T18:58:58.330Z,101294.03
2023-05-04T19:01:27.679Z,101304.38
2023-05-04T19:03:55.445Z,101259.09
2023-05-04T19:06:24.481Z,101294.25
2023-05-04T19:08:52.197Z,101268.06
2023-05-04T19:11:19.883Z,101284.91
2023-05-04T19:13:47.645Z,101272.47
2023-05-04T19:16:15.697Z,101275.56
2023-05-04T19:18:44.335Z,101259.88
2023-05-04T19:21:12.174Z,101240.88
2023-05-04T19:23:41.272Z,101208.81
2023-05-04T19:26:09.288Z,101250.72
2023-05-04T19:28:37.045Z,101256.84
2023-05-04T19:31:05.427Z,101256.88
2023-05-04T19:33:40.840Z,101252.16
2023-05-04T19:36:15.306Z,101265.81
2023-05-04T19:38:44.502Z,101253.03
2023-05-04T19:41:12.251Z,101242.41
2023-05-04T19:43:40.023Z,101242.19
2023-05-04T19:46:08.064Z,101240.38
2023-05-04T19:48:35.878Z,101255.13
2023-05-04T19:51:03.617Z,101248.31
2023-05-04T19:53:31.668Z,101233.47
2023-05-04T19:56:00.924Z,101230.09
2023-05-04T19:58:30.785Z,101227.09
2023-05-04T20:00:58.500Z,101236.94
2023-05-04T20:03:26.429Z,101239.88
2023-05-04T20:05:54.278Z,101239.97
2023-05-04T20:08:21.986Z,101232.03
2023-05-04T20:10:49.761Z,101198.28
2023-05-04T20:13:18.887Z,101204.47
2023-05-04T20:15:46.864Z,101196.22
2023-05-04T20:18:14.597Z,101166.44
2023-05-04T20:20:42.366Z,101177.06
2023-05-04T20:23:10.037Z,101172.66
2023-05-04T20:25:37.646Z,101173.41
2023-05-04T20:28:05.717Z,101156.16
2023-05-04T20:30:34.761Z,101146.00
2023-05-04T20:33:02.466Z,101124.16
2023-05-04T20:35:30.306Z,101119.53
2023-05-04T20:37:58.031Z,101093.75
2023-05-04T20:40:25.827Z,101112.69
2023-05-04T20:42:53.520Z,101095.66
2023-05-04T20:45:21.407Z,101082.31
2023-05-04T20:47:50.692Z,101076.09
2023-05-04T20:50:18.887Z,101071.22
2023-05-04T20:52:46.588Z,101072.44
2023-05-04T20:55:14.437Z,101073.72
2023-05-04T20:57:42.201Z,101054.47
2023-05-04T21:00:11.046Z,101046.03
2023-05-04T21:02:38.779Z,101043.41
2023-05-04T21:05:08.907Z,101063.31
2023-05-04T21:07:36.581Z,101048.28
2023-05-04T21:10:04.774Z,101051.00
2023-05-04T21:12:32.640Z,101058.34
2023-05-04T21:15:00.508Z,101032.16
2023-05-04T21:17:28.281Z,101023.66
2023-05-04T21:19:55.980Z,101037.25
2023-05-04T21:22:25.096Z,101017.84
2023-05-04T21:24:52.763Z,101011.22
2023-05-04T21:27:20.540Z,101033.50
2023-05-04T21:29:48.264Z,101024.25
2023-05-04T21:32:16.041Z,100999.41
2023-05-04T21:34:43.679Z,100997.78
2023-05-04T21:37:11.356Z,100976.91
2023-05-04T21:39:40.413Z,100975.31
2023-05-04T21:42:08.127Z,100973.75
2023-05-04T21:44:36.095Z,100965.66
2023-05-04T21:47:03.992Z,100974.00
2023-05-04T21:49:31.782Z,100974.25
2023-05-04T21:51:59.475Z,100974.47
2023-05-04T21:54:27.144Z,100939.00
2023-05-04T21:56:56.391Z,100920.22
2023-05-04T21:59:24.377Z,100934.78
2023-05-04T22:01:52.039Z,100934.41
2023-05-04T22:04:19.872Z,100912.38
2023-05-04T22:06:48.236Z,100891.13
2023-05-04T22:09:15.893Z,100890.31
2023-05-04T22:11:43.566Z,100886.47
2023-05-04T22:14:12.758Z,100881.66
2023-05-04T22:16:40.945Z,100856.75
2023-05-04T22:19:08.614Z,100856.16
2023-05-04T22:21:38.611Z,100868.41
2023-05-04T22:24:07.825Z,100817.78
2023-05-04T22:26:35.621Z,100812.94
2023-05-04T22:29:03.603Z,100815.00
2023-05-04T22:31:32.680Z,100804.06
2023-05-04T22:34:00.397Z,100807.72
2023-05-04T22:36:28.127Z,100784.34
2023-05-04T22:38:55.875Z,100770.16
2023-05-04T22:41:27.050Z,100766.72
2023-05-04T22:43:54.694Z,100738.50
2023-05-04T22:46:22.415Z,100761.50
2023-05-04T22:48:51.523Z,100758.09
2023-05-04T22:51:19.176Z,100720.06
2023-05-04T22:53:46.793Z,100732.66
2023-05-04T22:56:14.479Z,100722.56
2023-05-04T22:58:42.449Z,100707.19
2023-05-04T23:01:11.638Z,100706.38
2023-05-04T23:03:39.745Z,100689.03
2023-05-04T23:06:09.709Z,100690.44
2023-05-04T23:08:37.469Z,100683.78
2023-05-04T23:11:05.700Z,100686.19
2023-05-04T23:13:34.175Z,100698.75
2023-05-04T23:16:02.206Z,100689.25
2023-05-04T23:18:30.077Z,100713.59
2023-05-04T23:20:57.963Z,100637.78
2023-05-04T23:23:27.389Z,100631.72
2023-05-04T23:25:55.095Z,100624.63
2023-05-04T23:28:22.810Z,100642.97
2023-05-04T23:30:50.504Z,100626.47
2023-05-04T23:33:18.111Z,100626.81
2023-05-04T23:35:45.819Z,100629.00
2023-05-04T23:38:13.513Z,100645.41
2023-05-04T23:40:42.553Z,100655.31
2023-05-04T23:43:10.314Z,100648.63
2023-05-04T23:45:38.143Z,100645.53
2023-05-04T23:48:06.484Z,100666.44
2023-05-04T23:50:36.598Z,100571.56
2023-05-04T23:53:04.359Z,100553.44
2023-05-04T23:55:32.174Z,100529.81
2023-05-04T23:58:01.161Z,100564.59
